createdAt,value
2022-09-16T00:01:30.489Z,14.86
2022-09-16T00:04:00.086Z,14.83
2022-09-16T00:06:30.426Z,14.86
2022-09-16T00:09:00.937Z,14.82
2022-09-16T00:11:29.489Z,14.87
2022-09-16T00:13:57.703Z,14.88
2022-09-16T00:16:28.175Z,14.88
2022-09-16T00:18:57.983Z,14.78
2022-09-16T00:21:29.147Z,14.81
2022-09-16T00:23:58.157Z,14.83
2022-09-16T00:26:26.928Z,14.84
2022-09-16T00:28:55.454Z,14.82
2022-09-16T00:31:23.976Z,14.87
2022-09-16T00:33:52.334Z,14.79
2022-09-16T00:36:21.550Z,14.78
2022-09-16T00:38:54.819Z,14.77
2022-09-16T00:41:25.728Z,14.81
2022-09-16T00:43:57.560Z,14.75
2022-09-16T00:46:34.441Z,14.73
2022-09-16T00:49:07.357Z,14.70
2022-09-16T00:51:35.864Z,14.68
2022-09-16T00:54:09.634Z,14.67
2022-09-16T00:56:41.593Z,14.64
2022-09-16T00:59:15.597Z,14.65
2022-09-16T01:01:44.910Z,14.64
2022-09-16T01:04:19.998Z,14.60
2022-09-16T01:06:48.406Z,14.61
2022-09-16T01:09:19.428Z,14.58
2022-09-16T01:11:48.134Z,14.53
2022-09-16T01:14:35.754Z,14.57
2022-09-16T01:17:17.007Z,14.54
2022-09-16T01:20:23.487Z,14.54
2022-09-16T01:23:18.594Z,14.55
2022-09-16T01:26:10.594Z,14.50
2022-09-16T01:29:19.835Z,14.52
2022-09-16T01:31:57.653Z,14.53
2022-09-16T01:34:35.292Z,14.51
2022-09-16T01:37:09.736Z,14.56
2022-09-16T01:39:49.549Z,14.59
2022-09-16T01:42:33.254Z,14.57
2022-09-16T01:45:08.843Z,14.52
2022-09-16T01:47:53.305Z,14.51
2022-09-16T01:50:28.475Z,14.47
2022-09-16T01:53:09.687Z,14.42
2022-09-16T01:55:42.947Z,14.37
2022-09-16T01:58:19.195Z,14.30
2022-09-16T02:00:47.848Z,14.25
2022-09-16T02:03:23.682Z,14.28
2022-09-16T02:05:56.672Z,14.27
2022-09-16T02:08:33.417Z,14.32
2022-09-16T02:11:05.081Z,14.28
2022-09-16T02:13:37.276Z,14.29
2022-09-16T02:16:11.921Z,14.27
2022-09-16T02:18:43.551Z,14.20
2022-09-16T02:21:15.385Z,14.17
2022-09-16T02:23:48.120Z,14.16
2022-09-16T02:26:21.941Z,14.16
2022-09-16T02:28:54.365Z,14.14
2022-09-16T02:31:27.330Z,14.11
2022-09-16T02:34:01.663Z,14.10
2022-09-16T02:36:30.893Z,14.09
2022-09-16T02:39:04.854Z,14.07
2022-09-16T02:41:33.156Z,14.03
2022-09-16T02:44:01.894Z,14.06
2022-09-16T02:46:40.209Z,14.02
2022-09-16T02:49:15.831Z,13.95
2022-09-16T02:51:55.627Z,13.94
2022-09-16T02:54:32.604Z,13.92
2022-09-16T02:57:01.294Z,13.89
2022-09-16T02:59:29.855Z,13.83
2022-09-16T03:02:00.062Z,13.84
2022-09-16T03:04:31.128Z,13.84
2022-09-16T03:06:59.313Z,13.79
2022-09-16T03:09:29.810Z,13.76
2022-09-16T03:12:24.929Z,13.75
2022-09-16T03:15:35.288Z,13.80
2022-09-16T03:18:44.449Z,13.76
2022-09-16T03:21:19.024Z,13.80
2022-09-16T03:23:57.829Z,13.79
2022-09-16T03:26:35.265Z,13.81
2022-09-16T03:29:15.734Z,13.80
2022-09-16T03:31:52.601Z,13.78
2022-09-16T03:34:25.487Z,13.77
2022-09-16T03:37:02.506Z,13.80
2022-09-16T03:39:31.724Z,13.80
2022-09-16T03:42:03.524Z,13.80
2022-09-16T03:44:34.570Z,13.77
2022-09-16T03:47:03.486Z,13.77
2022-09-16T03:49:31.909Z,13.82
2022-09-16T03:52:01.918Z,13.80
2022-09-16T03:54:30.172Z,13.79
2022-09-16T03:56:58.632Z,13.77
2022-09-16T03:59:26.868Z,13.78
2022-09-16T04:01:55.714Z,13.81
2022-09-16T04:04:24.037Z,13.76
2022-09-16T04:06:52.445Z,13.75
2022-09-16T04:09:22.237Z,13.73
2022-09-16T04:11:50.707Z,13.69
2022-09-16T04:14:19.092Z,13.68
2022-09-16T04:16:47.372Z,13.70
2022-09-16T04:19:15.873Z,13.69
2022-09-16T04:21:44.658Z,13.71
2022-09-16T04:24:13.600Z,13.68
2022-09-16T04:26:43.467Z,13.69
2022-09-16T04:29:12.082Z,13.68
2022-09-16T04:31:40.387Z,13.68
2022-09-16T04:34:08.746Z,13.67
2022-09-16T04:36:37.187Z,13.68
2022-09-16T04:39:06.063Z,13.68
2022-09-16T04:41:34.789Z,13.68
2022-09-16T04:44:04.536Z,13.69
2022-09-16T04:46:34.120Z,13.65
2022-09-16T04:49:03.629Z,13.66
2022-09-16T04:51:32.262Z,13.71
2022-09-16T04:54:01.764Z,13.69
2022-09-16T04:56:33.858Z,13.68
2022-09-16T04:59:05.445Z,13.67
2022-09-16T05:01:36.989Z,13.69
2022-09-16T05:04:07.871Z,13.67
2022-09-16T05:06:38.496Z,13.67
2022-09-16T05:09:07.488Z,13.66
2022-09-16T05:11:39.334Z,13.65
2022-09-16T05:14:14.253Z,13.68
2022-09-16T05:16:42.786Z,13.65
2022-09-16T05:19:13.387Z,13.65
2022-09-16T05:21:42.496Z,13.64
2022-09-16T05:24:14.931Z,13.63
2022-09-16T05:26:44.425Z,13.65
2022-09-16T05:29:16.512Z,13.65
2022-09-16T05:31:47.248Z,13.64
2022-09-16T05:34:18.320Z,13.61
2022-09-16T05:36:47.992Z,13.60
2022-09-16T05:39:25.933Z,13.62
2022-09-16T05:41:57.230Z,13.63
2022-09-16T05:44:28.170Z,13.61
2022-09-16T05:46:57.243Z,13.61
2022-09-16T05:49:25.943Z,13.61
2022-09-16T05:51:54.922Z,13.64
2022-09-16T05:54:25.263Z,13.62
2022-09-16T05:56:54.186Z,13.64
2022-09-16T05:59:23.457Z,13.62
2022-09-16T06:01:53.235Z,13.62
2022-09-16T06:04:21.647Z,13.60
2022-09-16T06:06:49.911Z,13.61
2022-09-16T06:09:21.332Z,13.65
2022-09-16T06:11:51.730Z,13.60
2022-09-16T06:14:22.605Z,13.58
2022-09-16T06:16:52.468Z,13.56
2022-09-16T06:19:20.769Z,13.59
2022-09-16T06:21:49.185Z,13.56
2022-09-16T06:24:19.465Z,13.58
2022-09-16T06:26:49.235Z,13.58
2022-09-16T06:29:18.662Z,13.56
2022-09-16T06:31:47.127Z,13.56
2022-09-16T06:34:19.076Z,13.53
2022-09-16T06:36:47.887Z,13.52
2022-09-16T06:39:18.153Z,13.53
2022-09-16T06:41:46.737Z,13.51
2022-09-16T06:44:15.128Z,13.49
2022-09-16T06:46:44.239Z,13.50
2022-09-16T06:49:13.047Z,13.53
2022-09-16T06:51:43.574Z,13.53
2022-09-16T06:54:12.722Z,13.52
2022-09-16T06:56:41.511Z,13.57
2022-09-16T06:59:14.274Z,13.55
2022-09-16T07:01:42.872Z,13.50
2022-09-16T07:04:13.245Z,13.49
2022-09-16T07:07:12.732Z,13.43
2022-09-16T07:09:32.458Z,13.42
2022-09-16T07:12:01.359Z,13.39
2022-09-16T07:14:32.458Z,13.38
2022-09-16T07:17:01.488Z,13.34
2022-09-16T07:19:30.551Z,13.34
2022-09-16T07:22:00.254Z,13.38
2022-09-16T07:24:28.463Z,13.36
2022-09-16T07:26:56.693Z,13.32
2022-09-16T07:29:25.204Z,13.33
2022-09-16T07:31:53.416Z,13.31
2022-09-16T07:34:21.750Z,13.32
2022-09-16T07:36:50.872Z,13.35
2022-09-16T07:39:21.210Z,13.32
2022-09-16T07:41:49.744Z,13.32
2022-09-16T07:44:20.493Z,13.37
2022-09-16T07:46:50.953Z,13.43
2022-09-16T07:49:19.535Z,13.41
2022-09-16T07:51:48.237Z,13.47
2022-09-16T07:54:21.404Z,13.45
2022-09-16T07:56:49.654Z,13.42
2022-09-16T07:59:20.317Z,13.43
2022-09-16T08:01:50.800Z,13.42
2022-09-16T08:04:21.006Z,13.43
2022-09-16T08:06:49.600Z,13.42
2022-09-16T08:12:10.793Z,13.45
2022-09-16T08:14:39.333Z,13.43
2022-09-16T08:17:08.065Z,13.42
2022-09-16T08:19:38.362Z,13.41
2022-09-16T08:22:06.831Z,13.41
2022-09-16T08:24:35.077Z,13.45
2022-09-16T08:27:03.382Z,13.45
2022-09-16T08:29:33.312Z,13.42
2022-09-16T08:32:01.624Z,13.43
2022-09-16T08:34:29.832Z,13.39
2022-09-16T08:36:58.135Z,13.38
2022-09-16T08:39:26.396Z,13.39
2022-09-16T08:42:20.948Z,13.32
2022-09-16T08:45:04.814Z,13.30
2022-09-16T08:47:50.591Z,13.27
2022-09-16T08:50:32.724Z,13.26
2022-09-16T08:53:06.832Z,13.26
2022-09-16T08:55:39.806Z,13.24
2022-09-16T08:58:15.828Z,13.24
2022-09-16T09:00:48.316Z,13.27
2022-09-16T09:03:32.231Z,13.29
2022-09-16T09:06:01.707Z,13.29
2022-09-16T09:08:44.531Z,13.22
2022-09-16T09:11:23.200Z,13.27
2022-09-16T09:14:20.632Z,13.28
2022-09-16T09:16:58.219Z,13.21
2022-09-16T09:19:41.764Z,13.18
2022-09-16T09:22:25.517Z,13.13
2022-09-16T09:25:17.223Z,13.18
2022-09-16T09:27:57.192Z,13.20
2022-09-16T09:30:27.705Z,13.18
2022-09-16T09:33:44.273Z,13.18
2022-09-16T09:36:29.829Z,13.14
2022-09-16T09:39:25.547Z,13.15
2022-09-16T09:41:59.757Z,13.17
2022-09-16T09:44:48.281Z,13.20
2022-09-16T09:47:23.825Z,13.13
2022-09-16T09:49:58.228Z,13.14
2022-09-16T09:52:38.564Z,13.19
2022-09-16T09:55:18.219Z,13.14
2022-09-16T09:58:01.530Z,13.15
2022-09-16T10:00:30.120Z,13.16
2022-09-16T10:03:10.437Z,13.17
2022-09-16T10:05:40.529Z,13.21
2022-09-16T10:08:20.009Z,13.29
2022-09-16T10:10:52.543Z,13.30
2022-09-16T10:13:22.906Z,13.30
2022-09-16T10:15:55.646Z,13.27
2022-09-16T10:18:30.293Z,13.32
2022-09-16T10:21:07.945Z,13.37
2022-09-16T10:23:39.100Z,13.39
2022-09-16T10:26:20.977Z,13.44
2022-09-16T10:28:58.561Z,13.55
2022-09-16T10:31:34.252Z,13.49
2022-09-16T10:34:05.809Z,13.51
2022-09-16T10:36:36.845Z,13.50
2022-09-16T10:39:06.125Z,13.51
2022-09-16T10:41:42.447Z,13.49
2022-09-16T10:44:18.988Z,13.59
2022-09-16T10:46:57.275Z,13.59
2022-09-16T10:49:35.427Z,13.57
2022-09-16T10:52:17.912Z,13.56
2022-09-16T10:54:47.076Z,13.57
2022-09-16T10:57:25.633Z,13.61
2022-09-16T11:00:11.624Z,13.61
2022-09-16T11:03:19.297Z,13.62
2022-09-16T11:06:00.219Z,13.61
2022-09-16T11:08:44.951Z,13.49
2022-09-16T11:11:23.183Z,13.46
2022-09-16T11:14:01.224Z,13.46
2022-09-16T11:16:52.944Z,13.50
2022-09-16T11:19:27.863Z,13.65
2022-09-16T11:22:14.552Z,13.70
2022-09-16T11:24:59.072Z,13.62
2022-09-16T11:27:42.930Z,13.63
2022-09-16T11:30:14.421Z,13.59
2022-09-16T11:33:07.531Z,13.68
2022-09-16T11:36:38.546Z,13.69
2022-09-16T11:39:28.903Z,13.68
2022-09-16T11:42:05.998Z,13.72
2022-09-16T11:44:45.269Z,13.73
2022-09-16T11:47:41.662Z,13.78
2022-09-16T11:50:26.959Z,13.83
2022-09-16T11:53:21.900Z,13.83
2022-09-16T11:55:59.343Z,13.86
2022-09-16T11:58:40.332Z,13.91
2022-09-16T12:01:25.540Z,13.92
2022-09-16T12:03:57.572Z,13.97
2022-09-16T12:06:31.722Z,14.08
2022-09-16T12:09:07.694Z,14.14
2022-09-16T12:11:45.927Z,14.26
2022-09-16T12:14:21.757Z,14.28
2022-09-16T12:16:55.895Z,14.27
2022-09-16T12:19:29.809Z,14.34
2022-09-16T12:22:05.416Z,14.49
2022-09-16T12:24:44.382Z,14.54
2022-09-16T12:27:34.089Z,14.70
2022-09-16T12:30:15.546Z,15.04
2022-09-16T12:32:59.266Z,15.28
2022-09-16T12:35:34.599Z,15.34
2022-09-16T12:38:03.723Z,15.34
2022-09-16T12:40:41.282Z,15.49
2022-09-16T12:44:06.547Z,15.55
2022-09-16T12:47:14.338Z,15.54
2022-09-16T12:50:19.680Z,15.47
2022-09-16T12:53:26.284Z,15.38
2022-09-16T12:56:06.149Z,15.34
2022-09-16T12:59:26.443Z,15.34
2022-09-16T13:02:01.960Z,15.24
2022-09-16T13:04:35.663Z,15.11
2022-09-16T13:07:05.250Z,15.08
2022-09-16T13:09:39.078Z,15.07
2022-09-16T13:12:41.488Z,15.10
2022-09-16T13:15:21.416Z,15.09
2022-09-16T13:17:53.211Z,14.99
2022-09-16T13:20:28.453Z,15.27
2022-09-16T13:23:08.752Z,15.68
2022-09-16T13:25:49.390Z,15.94
2022-09-16T13:28:39.840Z,16.31
2022-09-16T13:31:20.790Z,16.67
2022-09-16T13:34:15.469Z,16.70
2022-09-16T13:36:44.098Z,16.71
2022-09-16T13:39:16.233Z,17.06
2022-09-16T13:41:46.788Z,17.29
2022-09-16T13:44:31.845Z,17.50
2022-09-16T13:47:34.376Z,17.51
2022-09-16T13:50:16.271Z,17.62
2022-09-16T13:52:45.577Z,17.41
2022-09-16T13:55:23.463Z,17.15
2022-09-16T13:58:02.252Z,17.04
2022-09-16T14:00:39.049Z,16.96
2022-09-16T14:03:40.384Z,17.00
2022-09-16T14:06:40.339Z,17.03
2022-09-16T14:09:28.738Z,17.01
2022-09-16T14:12:08.429Z,17.00
2022-09-16T14:14:53.402Z,16.83
2022-09-16T14:17:28.422Z,16.56
2022-09-16T14:20:02.141Z,16.51
2022-09-16T14:22:32.023Z,16.47
2022-09-16T14:25:06.127Z,16.35
2022-09-16T14:27:43.332Z,16.53
2022-09-16T14:30:17.857Z,16.73
2022-09-16T14:32:48.600Z,17.07
2022-09-16T14:35:21.387Z,17.26
2022-09-16T14:37:54.634Z,17.63
2022-09-16T14:40:25.736Z,17.54
2022-09-16T14:42:58.701Z,17.41
2022-09-16T14:45:28.026Z,17.47
2022-09-16T14:47:58.880Z,17.55
2022-09-16T14:50:31.077Z,17.66
2022-09-16T14:53:03.262Z,17.89
2022-09-16T14:55:36.174Z,17.90
2022-09-16T14:58:05.005Z,17.65
2022-09-16T15:00:40.970Z,17.37
2022-09-16T15:03:17.900Z,17.16
2022-09-16T15:05:48.403Z,17.19
2022-09-16T15:08:23.299Z,17.43
2022-09-16T15:10:56.113Z,17.38
2022-09-16T15:13:27.897Z,17.35
2022-09-16T15:15:59.831Z,17.29
2022-09-16T15:18:32.779Z,17.09
2022-09-16T15:21:08.361Z,17.11
2022-09-16T15:23:41.681Z,17.12
2022-09-16T15:26:16.860Z,17.15
2022-09-16T15:28:58.224Z,17.17
2022-09-16T15:31:36.864Z,17.25
2022-09-16T15:34:21.648Z,17.27
2022-09-16T15:36:54.206Z,17.28
2022-09-16T15:39:28.360Z,17.27
2022-09-16T15:42:13.030Z,17.18
2022-09-16T15:44:48.724Z,17.13
2022-09-16T15:47:21.694Z,17.07
2022-09-16T15:49:59.276Z,17.01
2022-09-16T15:52:28.002Z,16.96
2022-09-16T15:55:02.734Z,17.07
2022-09-16T15:57:35.361Z,17.33
2022-09-16T16:00:10.895Z,17.48
2022-09-16T16:02:49.235Z,17.45
2022-09-16T16:05:21.360Z,17.32
2022-09-16T16:07:52.252Z,17.19
2022-09-16T16:10:30.318Z,17.01
2022-09-16T16:13:03.909Z,16.95
2022-09-16T16:15:36.812Z,16.82
2022-09-16T16:18:08.460Z,16.74
2022-09-16T16:20:40.205Z,16.71
2022-09-16T16:23:08.782Z,16.77
2022-09-16T16:25:38.614Z,16.79
2022-09-16T16:28:07.073Z,16.92
2022-09-16T16:30:35.567Z,17.06
2022-09-16T16:33:03.809Z,17.10
2022-09-16T16:35:32.104Z,17.31
2022-09-16T16:38:00.500Z,17.45
2022-09-16T16:40:28.852Z,17.60
2022-09-16T16:42:58.695Z,17.59
2022-09-16T16:45:27.139Z,17.20
2022-09-16T16:47:56.542Z,17.20
2022-09-16T16:50:24.798Z,17.17
2022-09-16T16:52:53.999Z,17.07
2022-09-16T16:55:22.354Z,16.94
2022-09-16T16:57:50.645Z,16.87
2022-09-16T17:00:20.528Z,16.85
2022-09-16T17:02:49.495Z,16.66
2022-09-16T17:05:17.905Z,16.29
2022-09-16T17:07:46.171Z,16.23
2022-09-16T17:10:14.873Z,16.21
2022-09-16T17:12:43.235Z,16.27
2022-09-16T17:15:11.964Z,16.30
2022-09-16T17:17:41.901Z,16.34
2022-09-16T17:20:13.637Z,16.24
2022-09-16T17:22:42.558Z,16.20
2022-09-16T17:25:11.115Z,16.12
2022-09-16T17:27:39.666Z,16.00
2022-09-16T17:30:09.376Z,15.94
2022-09-16T17:32:37.581Z,15.86
2022-09-16T17:35:08.509Z,15.75
2022-09-16T17:37:38.385Z,15.71
2022-09-16T17:40:08.190Z,15.69
2022-09-16T17:42:36.595Z,15.68
2022-09-16T17:45:06.390Z,15.63
2022-09-16T17:47:35.173Z,15.63
2022-09-16T17:50:05.345Z,15.64
2022-09-16T17:52:34.957Z,15.64
2022-09-16T17:55:03.589Z,15.63
2022-09-16T17:57:33.442Z,15.59
2022-09-16T18:00:04.064Z,15.57
2022-09-16T18:02:40.489Z,15.53
2022-09-16T18:05:10.171Z,15.48
2022-09-16T18:07:40.014Z,15.44
2022-09-16T18:10:09.121Z,15.37
2022-09-16T18:12:37.339Z,15.29
2022-09-16T18:15:07.617Z,15.27
2022-09-16T18:17:36.094Z,15.28
2022-09-16T18:20:07.077Z,15.30
2022-09-16T18:22:35.848Z,15.22
2022-09-16T18:25:06.710Z,15.19
2022-09-16T18:27:35.038Z,15.11
2022-09-16T18:30:03.618Z,15.00
2022-09-16T18:32:32.072Z,14.97
2022-09-16T18:35:00.415Z,14.90
2022-09-16T18:37:29.714Z,14.86
2022-09-16T18:39:58.008Z,14.82
2022-09-16T18:42:27.681Z,14.79
2022-09-16T18:44:56.033Z,14.68
2022-09-16T18:47:24.536Z,14.65
2022-09-16T18:49:53.149Z,14.55
2022-09-16T18:52:21.700Z,14.55
2022-09-16T18:54:50.288Z,14.49
2022-09-16T18:57:18.597Z,14.46
2022-09-16T18:59:48.441Z,14.46
2022-09-16T19:02:16.952Z,14.38
2022-09-16T19:04:45.310Z,14.37
2022-09-16T19:07:17.155Z,14.31
2022-09-16T19:09:45.981Z,14.27
2022-09-16T19:12:14.692Z,14.27
2022-09-16T19:14:43.189Z,14.16
2022-09-16T19:17:13.017Z,14.18
2022-09-16T19:19:41.389Z,14.13
2022-09-16T19:22:09.975Z,14.09
2022-09-16T19:24:38.434Z,14.03
2022-09-16T19:27:06.947Z,13.94
2022-09-16T19:29:35.256Z,13.87
2022-09-16T19:32:03.720Z,13.88
2022-09-16T19:34:33.641Z,13.86
2022-09-16T19:37:01.931Z,13.79
2022-09-16T19:39:30.241Z,13.73
2022-09-16T19:42:03.104Z,13.74
2022-09-16T19:44:31.843Z,13.64
2022-09-16T19:47:01.278Z,13.63
2022-09-16T19:49:29.663Z,13.54
2022-09-16T19:51:59.441Z,13.45
2022-09-16T19:54:27.892Z,13.43
2022-09-16T19:56:56.404Z,13.43
2022-09-16T19:59:24.655Z,13.26
2022-09-16T20:01:53.174Z,13.26
2022-09-16T20:04:21.524Z,13.21
2022-09-16T20:06:50.767Z,13.21
2022-09-16T20:09:20.643Z,13.18
2022-09-16T20:11:49.392Z,13.12
2022-09-16T20:14:21.530Z,13.02
2022-09-16T20:16:51.707Z,13.02
2022-09-16T20:19:21.617Z,12.95
2022-09-16T20:21:50.035Z,12.96
2022-09-16T20:24:22.183Z,12.92
2022-09-16T20:26:53.673Z,12.88
2022-09-16T20:29:22.338Z,12.85
2022-09-16T20:31:52.419Z,12.82
2022-09-16T20:34:23.893Z,12.78
2022-09-16T20:36:52.607Z,12.73
2022-09-16T20:39:22.724Z,12.71
2022-09-16T20:41:52.592Z,12.68
2022-09-16T20:44:21.072Z,12.66
2022-09-16T20:46:49.980Z,12.59
2022-09-16T20:49:20.544Z,12.60
2022-09-16T20:51:48.849Z,12.53
2022-09-16T20:54:17.842Z,12.49
2022-09-16T20:56:49.165Z,12.53
2022-09-16T20:59:20.063Z,12.54
2022-09-16T21:01:49.580Z,12.56
2022-09-16T21:04:20.871Z,12.49
2022-09-16T21:06:49.688Z,12.37
2022-09-16T21:09:19.234Z,12.41
2022-09-16T21:11:49.844Z,12.45
2022-09-16T21:14:21.439Z,12.43
2022-09-16T21:16:51.532Z,12.45
2022-09-16T21:19:20.104Z,12.43
2022-09-16T21:21:48.508Z,12.36
2022-09-16T21:24:17.615Z,12.40
2022-09-16T21:26:48.406Z,12.39
2022-09-16T21:29:21.055Z,12.46
2022-09-16T21:31:50.064Z,12.37
2022-09-16T21:34:22.069Z,12.38
2022-09-16T21:36:51.829Z,12.38
2022-09-16T21:39:21.810Z,12.36
2022-09-16T21:41:51.404Z,12.36
2022-09-16T21:44:19.990Z,12.37
2022-09-16T21:46:49.586Z,12.26
2022-09-16T21:49:23.142Z,12.24
2022-09-16T21:51:52.682Z,12.18
2022-09-16T21:54:21.513Z,12.16
2022-09-16T21:56:52.117Z,12.16
2022-09-16T21:59:21.117Z,12.16
2022-09-16T22:01:50.933Z,12.09
2022-09-16T22:04:21.445Z,12.07
2022-09-16T22:06:50.674Z,11.98
2022-09-16T22:09:19.013Z,11.97
2022-09-16T22:11:47.864Z,11.90
2022-09-16T22:14:18.189Z,11.89
2022-09-16T22:16:46.412Z,11.88
2022-09-16T22:19:17.036Z,11.85
2022-09-16T22:21:48.208Z,11.82
2022-09-16T22:24:19.884Z,11.80
2022-09-16T22:26:48.805Z,11.74
2022-09-16T22:29:18.822Z,11.70
2022-09-16T22:31:47.110Z,11.64
2022-09-16T22:34:15.636Z,11.64
2022-09-16T22:36:43.840Z,11.62
2022-09-16T22:39:15.473Z,11.60
2022-09-16T22:41:43.925Z,11.59
2022-09-16T22:44:12.704Z,11.59
2022-09-16T22:46:45.089Z,11.53
2022-09-16T22:49:13.888Z,11.49
2022-09-16T22:51:42.830Z,11.49
2022-09-16T22:54:13.949Z,11.43
2022-09-16T22:56:44.359Z,11.42
2022-09-16T22:59:19.535Z,11.41
2022-09-16T23:01:49.929Z,11.38
2022-09-16T23:04:19.385Z,11.31
2022-09-16T23:06:48.032Z,11.26
2022-09-16T23:09:16.573Z,11.17
2022-09-16T23:11:45.574Z,11.12
2022-09-16T23:14:21.667Z,11.12
2022-09-16T23:16:51.857Z,11.07
2022-09-16T23:19:21.631Z,11.08
2022-09-16T23:21:50.876Z,11.07
2022-09-16T23:24:22.823Z,10.98
2022-09-16T23:26:51.172Z,10.99
2022-09-16T23:29:19.548Z,11.01
2022-09-16T23:31:47.910Z,10.97
2022-09-16T23:34:20.886Z,10.97
2022-09-16T23:36:49.802Z,10.91
2022-09-16T23:39:18.791Z,10.98
2022-09-16T23:41:48.048Z,10.95
2022-09-16T23:44:17.315Z,10.93
2022-09-16T23:46:46.056Z,10.96
2022-09-16T23:49:17.018Z,10.87
2022-09-16T23:51:47.388Z,10.89
2022-09-16T23:54:17.179Z,10.82
2022-09-16T23:56:45.479Z,10.82
2022-09-16T23:59:13.731Z,10.80
